Time;durP1;ratioP1;P1;durP2;ratioP2;P2;SDS_P1;SDS_P2;PMS_P1;PMS_P2;Temp;Humidity;BMP_temperature;BMP_pressure;BME280_temperature;BME280_humidity;BME280_pressure;Samples;Min_cycle;Max_cycle;Signal;HPM_P1;HPM_P2
2022/10/27 00:05:12;;;;;;;5.32;3.25;;;;;;;10.31;100.00;98440.34;18103984;32;20067;-61
2022/10/27 00:15:14;;;;;;;6.20;3.80;;;;;;;10.24;100.00;98445.91;18092087;32;20090;-62
2022/10/27 00:25:17;;;;;;;7.75;3.62;;;;;;;10.21;100.00;98442.88;18210121;32;20446;-62
2022/10/27 00:35:20;;;;;;;6.60;3.30;;;;;;;10.15;100.00;98458.19;18237529;32;20058;-62
2022/10/27 00:45:22;;;;;;;6.70;4.07;;;;;;;10.06;100.00;98467.78;18237278;32;20054;-62
2022/10/27 00:55:32;;;;;;;5.57;2.90;;;;;;;9.98;100.00;98463.63;18236640;32;20115;-61
2022/10/27 01:05:34;;;;;;;5.57;3.67;;;;;;;9.87;100.00;98465.34;18102098;32;20059;-61
2022/10/27 01:16:04;;;;;;;4.10;2.50;;;;;;;9.81;100.00;98479.81;18100830;32;20075;-61
2022/10/27 01:26:16;;;;;;;4.03;2.57;;;;;;;9.76;100.00;98495.97;18101047;32;20138;-61
2022/10/27 01:36:54;;;;;;;10.03;3.27;;;;;;;9.63;100.00;98489.81;18214992;32;20107;-62
2022/10/27 01:46:57;;;;;;;7.90;3.63;;;;;;;9.52;100.00;98492.56;18296844;32;20439;-61
2022/10/27 01:57:15;;;;;;;5.10;2.97;;;;;;;9.49;100.00;98494.69;18296430;32;20081;-61
2022/10/27 02:07:40;;;;;;;5.03;3.27;;;;;;;9.51;100.00;98486.38;18295977;32;20103;-61
2022/10/27 02:17:46;;;;;;;4.10;3.10;;;;;;;9.46;100.00;98489.78;18270930;32;20055;-61
2022/10/27 02:27:53;;;;;;;7.10;3.30;;;;;;;9.45;100.00;98487.31;18232897;32;20070;-61
2022/10/27 02:37:58;;;;;;;7.93;2.80;;;;;;;9.41;100.00;98476.19;18232225;32;20050;-62
2022/10/27 02:48:00;;;;;;;6.20;2.80;;;;;;;9.37;100.00;98472.31;18232300;32;20417;-61
2022/10/27 02:58:02;;;;;;;2.20;1.97;;;;;;;9.35;100.00;98469.06;18230546;32;20054;-61
2022/10/27 03:08:05;;;;;;;7.37;2.70;;;;;;;9.30;100.00;98486.00;18230921;32;20109;-61
2022/10/27 03:18:08;;;;;;;5.07;3.20;;;;;;;9.24;100.00;98475.34;18229214;32;20100;-61
2022/10/27 03:28:12;;;;;;;4.97;3.03;;;;;;;9.21;100.00;98465.00;18229017;32;20108;-61
2022/10/27 03:38:14;;;;;;;4.33;2.87;;;;;;;9.21;100.00;98478.50;18231348;32;20054;-62
2022/10/27 03:48:17;;;;;;;6.70;3.60;;;;;;;9.18;100.00;98471.69;18238785;32;20133;-61
2022/10/27 03:58:20;;;;;;;4.60;2.93;;;;;;;9.18;100.00;98465.50;18238896;32;20835;-61
2022/10/27 04:08:23;;;;;;;5.00;2.77;;;;;;;9.13;100.00;98466.22;18154555;32;20078;-62
2022/10/27 04:18:26;;;;;;;3.77;2.30;;;;;;;9.09;100.00;98479.38;18166530;32;20229;-61
2022/10/27 04:28:29;;;;;;;2.73;2.47;;;;;;;9.01;100.00;98471.66;18165976;32;20059;-61
2022/10/27 04:38:31;;;;;;;7.20;2.73;;;;;;;8.93;100.00;98478.25;18222476;32;20072;-61
2022/10/27 04:48:38;;;;;;;5.27;2.90;;;;;;;8.89;100.00;98462.78;18235952;32;20073;-61
2022/10/27 04:58:41;;;;;;;4.23;2.27;;;;;;;8.84;100.00;98473.47;18089743;32;20078;-61
2022/10/27 05:08:44;;;;;;;4.27;2.37;;;;;;;8.79;100.00;98471.50;18089425;32;20055;-61
2022/10/27 05:18:47;;;;;;;7.83;2.70;;;;;;;8.74;100.00;98482.16;18101405;32;20067;-61
2022/10/27 05:28:51;;;;;;;5.73;2.33;;;;;;;8.71;100.00;98480.75;18120928;32;20476;-61
2022/10/27 05:38:54;;;;;;;3.87;2.57;;;;;;;8.67;100.00;98479.59;18162671;32;20066;-61
2022/10/27 05:48:57;;;;;;;2.83;2.17;;;;;;;8.65;100.00;98487.13;18162371;32;20075;-62
2022/10/27 05:58:59;;;;;;;3.83;2.43;;;;;;;8.59;100.00;98478.13;18148904;32;20391;-61
2022/10/27 06:09:02;;;;;;;2.83;2.37;;;;;;;8.53;100.00;98475.53;18146359;32;20046;-62
2022/10/27 06:19:05;;;;;;;6.70;2.40;;;;;;;8.54;100.00;98477.16;18233258;32;20077;-61
2022/10/27 06:29:08;;;;;;;3.63;2.23;;;;;;;8.56;100.00;98491.22;18233152;32;20113;-62
2022/10/27 06:39:11;;;;;;;4.03;2.23;;;;;;;8.59;100.00;98491.59;18232151;32;20081;-61
2022/10/27 06:49:27;;;;;;;2.77;2.20;;;;;;;8.62;100.00;98498.38;18230786;32;20061;-61
2022/10/27 06:59:30;;;;;;;6.67;2.57;;;;;;;8.67;100.00;98498.47;18230057;32;20166;-61
2022/10/27 07:09:34;;;;;;;5.23;2.30;;;;;;;8.87;100.00;98516.97;18230677;32;20417;-62
2022/10/27 07:19:39;;;;;;;4.72;2.40;;;;;;;9.07;100.00;98524.66;18239567;32;20198;-62
2022/10/27 07:29:44;;;;;;;5.27;3.03;;;;;;;9.30;100.00;98541.84;18239284;32;20046;-61
2022/10/27 07:40:00;;;;;;;6.90;3.80;;;;;;;9.58;100.00;98542.88;18239976;32;20052;-62
2022/10/27 07:50:15;;;;;;;6.50;3.57;;;;;;;10.09;100.00;98546.50;18239715;32;20055;-61
2022/10/27 08:00:20;;;;;;;6.18;3.30;;;;;;;10.62;100.00;98563.28;18238213;32;20058;-62
2022/10/27 08:10:26;;;;;;;6.28;3.85;;;;;;;11.03;100.00;98579.25;18239000;32;20061;-61
2022/10/27 08:20:39;;;;;;;6.68;4.15;;;;;;;11.56;100.00;98578.81;18238372;32;20054;-62
2022/10/27 08:30:45;;;;;;;3.87;3.00;;;;;;;12.05;100.00;98586.94;18237545;32;20390;-62
2022/10/27 08:41:29;;;;;;;7.32;3.83;;;;;;;12.57;100.00;98595.50;18237471;32;20054;-62
2022/10/27 08:51:46;;;;;;;6.55;4.00;;;;;;;13.01;100.00;98590.63;18236967;32;20106;-61
2022/10/27 09:01:57;;;;;;;8.55;4.85;;;;;;;13.43;100.00;98588.12;18236148;32;20058;-62
2022/10/27 09:12:25;;;;;;;7.60;4.25;;;;;;;13.74;100.00;98589.03;18236755;32;20043;-62
2022/10/27 09:22:36;;;;;;;8.82;4.62;;;;;;;14.11;100.00;98587.19;18235708;32;20358;-62
2022/10/27 09:32:54;;;;;;;8.63;4.70;;;;;;;14.37;100.00;98579.84;18235481;32;20117;-61
2022/10/27 09:43:03;;;;;;;8.48;4.28;;;;;;;14.67;100.00;98587.22;18234063;32;20078;-62
2022/10/27 09:53:48;;;;;;;6.72;3.47;;;;;;;14.87;100.00;98582.84;18234300;32;20055;-62
2022/10/27 10:04:07;;;;;;;8.47;3.50;;;;;;;15.13;100.00;98580.84;18295677;32;20100;-62
2022/10/27 10:14:24;;;;;;;5.80;3.65;;;;;;;15.44;100.00;98579.91;18295832;32;20074;-62
2022/10/27 10:24:37;;;;;;;7.27;3.77;;;;;;;15.80;100.00;98593.38;18295559;32;20099;-62
2022/10/27 10:34:42;;;;;;;4.87;3.37;;;;;;;15.95;100.00;98590.59;18259077;32;20085;-62
2022/10/27 10:44:45;;;;;;;5.85;3.30;;;;;;;16.17;100.00;98575.69;18222783;32;20074;-62
2022/10/27 10:54:54;;;;;;;6.07;3.62;;;;;;;16.40;100.00;98568.66;18222177;32;20100;-62
2022/10/27 11:05:23;;;;;;;4.68;3.05;;;;;;;16.59;100.00;98564.16;18221577;32;20471;-63
2022/10/27 11:15:45;;;;;;;5.60;2.97;;;;;;;16.80;100.00;98557.66;18034499;32;20126;-62
2022/10/27 11:25:52;;;;;;;9.77;3.55;;;;;;;17.08;100.00;98539.63;18034243;32;20126;-62
2022/10/27 11:36:23;;;;;;;6.25;2.97;;;;;;;17.34;100.00;98531.13;18034068;32;20559;-62
2022/10/27 11:46:48;;;;;;;6.60;3.10;;;;;;;17.67;97.78;98533.94;18090798;32;20092;-62
2022/10/27 11:57:04;;;;;;;9.13;3.53;;;;;;;18.07;92.60;98523.50;18229258;32;20102;-62
2022/10/27 12:07:32;;;;;;;5.50;2.62;;;;;;;18.37;94.06;98513.16;18238182;32;20121;-62
2022/10/27 12:17:46;;;;;;;5.30;3.10;;;;;;;18.67;93.21;98509.06;18238456;32;20099;-63
2022/10/27 12:27:57;;;;;;;5.25;3.03;;;;;;;18.88;91.83;98506.75;18238376;32;20130;-63
2022/10/27 12:38:35;;;;;;;4.30;3.15;;;;;;;19.43;90.85;98508.66;18237423;32;20058;-62
2022/10/27 12:49:27;;;;;;;6.68;3.37;;;;;;;19.66;86.07;98508.69;18236040;32;20142;-62
2022/10/27 12:59:46;;;;;;;7.75;3.08;;;;;;;19.52;85.03;98496.94;18236190;32;20110;-62
2022/10/27 13:10:09;;;;;;;5.85;3.10;;;;;;;19.41;83.68;98490.88;18235247;32;20472;-63
2022/10/27 13:20:37;;;;;;;8.50;3.23;;;;;;;19.42;84.51;98484.28;18235927;32;20167;-62
2022/10/27 13:30:43;;;;;;;7.57;4.00;;;;;;;19.40;85.09;98461.81;18235739;32;20072;-62
2022/10/27 13:40:46;;;;;;;7.75;3.90;;;;;;;19.48;86.32;98450.09;18234110;32;20062;-63
2022/10/27 13:50:54;;;;;;;7.30;4.47;;;;;;;19.54;84.81;98446.16;18234403;32;20085;-62
2022/10/27 14:01:44;;;;;;;6.55;3.90;;;;;;;19.44;84.63;98446.37;18233922;32;20046;-62
2022/10/27 14:11:50;;;;;;;8.82;4.40;;;;;;;19.40;85.09;98456.34;18295704;32;20105;-62
2022/10/27 14:21:55;;;;;;;6.30;3.70;;;;;;;19.33;86.25;98455.94;18295000;32;20066;-62
2022/10/27 14:32:21;;;;;;;8.88;4.55;;;;;;;19.19;86.93;98456.78;18294999;32;20081;-62
2022/10/27 14:42:31;;;;;;;5.93;3.67;;;;;;;19.15;86.28;98477.72;18259469;32;20064;-62
2022/10/27 14:52:45;;;;;;;8.35;4.00;;;;;;;19.02;89.13;98473.88;18231908;32;20055;-63
2022/10/27 15:02:51;;;;;;;7.28;4.15;;;;;;;18.90;89.58;98481.81;18230131;32;20107;-62
2022/10/27 15:12:58;;;;;;;5.62;3.80;;;;;;;18.81;90.12;98476.19;18230909;32;20089;-63
2022/10/27 15:23:01;;;;;;;5.82;3.75;;;;;;;18.53;93.07;98480.84;18230293;32;20059;-62
2022/10/27 15:33:25;;;;;;;6.35;3.42;;;;;;;18.10;95.85;98487.31;18229643;32;20063;-62
2022/10/27 15:43:29;;;;;;;;;;;;;;;17.67;99.26;98492.91;18240877;32;20058;-62
2022/10/27 15:53:44;;;;;;;7.50;3.90;;;;;;;17.23;100.00;98519.50;18240105;32;19968;-62
2022/10/27 16:04:06;;;;;;;6.90;4.25;;;;;;;16.78;100.00;98506.06;18092814;32;20058;-62
2022/10/27 16:14:14;;;;;;;9.73;4.32;;;;;;;16.40;100.00;98512.19;18105002;32;20071;-62
2022/10/27 16:24:21;;;;;;;9.48;5.22;;;;;;;16.15;100.00;98509.69;18104687;32;20449;-63
2022/10/27 16:34:24;;;;;;;7.65;4.37;;;;;;;15.99;100.00;98531.63;18215756;32;20058;-62
2022/10/27 16:44:29;;;;;;;8.00;4.28;;;;;;;15.80;100.00;98517.84;18237118;32;20063;-62
2022/10/27 16:54:33;;;;;;;9.27;4.28;;;;;;;15.68;100.00;98522.81;18237074;32;20054;-62
2022/10/27 17:04:36;;;;;;;6.72;3.85;;;;;;;15.54;100.00;98531.63;18236476;32;20365;-62
2022/10/27 17:14:39;;;;;;;7.30;4.50;;;;;;;15.41;100.00;98543.94;18236060;32;20103;-62
2022/10/27 17:24:42;;;;;;;7.78;4.35;;;;;;;15.29;100.00;98542.66;18235827;32;20378;-62
2022/10/27 17:34:45;;;;;;;6.87;3.70;;;;;;;15.15;100.00;98550.59;18234177;32;20077;-62
2022/10/27 17:44:48;;;;;;;8.88;4.40;;;;;;;14.96;100.00;98547.66;18234995;32;20106;-62
2022/10/27 17:54:51;;;;;;;6.57;4.15;;;;;;;14.75;100.00;98555.91;18234541;32;20080;-62
2022/10/27 18:04:54;;;;;;;9.15;5.37;;;;;;;14.52;100.00;98559.97;18232924;32;20097;-62
2022/10/27 18:14:57;;;;;;;6.53;4.07;;;;;;;14.28;100.00;98566.00;18233640;32;20073;-63
2022/10/27 18:25:20;;;;;;;5.87;4.20;;;;;;;14.08;100.00;98561.34;18233642;32;20431;-63
2022/10/27 18:35:23;;;;;;;6.65;3.67;;;;;;;13.85;100.00;98557.25;18232440;32;20065;-62
2022/10/27 18:45:25;;;;;;;10.48;4.00;;;;;;;13.66;100.00;98559.66;18230723;32;20062;-62
2022/10/27 18:55:28;;;;;;;6.37;3.35;;;;;;;13.51;100.00;98563.97;18232188;32;20070;-62
2022/10/27 19:05:37;;;;;;;7.30;4.00;;;;;;;13.47;100.00;98545.75;18229753;32;20073;-62
2022/10/27 19:15:41;;;;;;;10.27;4.83;;;;;;;13.44;100.00;98552.53;18240835;32;20107;-62
2022/10/27 19:25:44;;;;;;;6.85;4.53;;;;;;;13.23;100.00;98551.63;18240833;32;20092;-62
2022/10/27 19:35:53;;;;;;;9.43;3.65;;;;;;;13.04;100.00;98548.53;18239435;32;20145;-62
2022/10/27 19:45:55;;;;;;;10.25;4.95;;;;;;;12.84;100.00;98544.66;18240183;32;20088;-62
2022/10/27 19:55:58;;;;;;;7.68;5.07;;;;;;;12.71;100.00;98539.69;18238496;32;20104;-62
2022/10/27 20:06:07;;;;;;;10.00;5.20;;;;;;;12.58;100.00;98535.56;18238915;32;20090;-62
2022/10/27 20:16:10;;;;;;;8.02;3.70;;;;;;;12.42;100.00;98540.06;18237869;32;20118;-62
2022/10/27 20:26:14;;;;;;;11.50;4.37;;;;;;;12.38;100.00;98528.09;18237878;32;20045;-62
2022/10/27 20:36:33;;;;;;;8.52;3.92;;;;;;;12.34;100.00;98527.78;18238032;32;20088;-62
2022/10/27 20:46:35;;;;;;;10.45;3.67;;;;;;;12.28;100.00;98533.44;18237641;32;20478;-62
2022/10/27 20:56:38;;;;;;;9.93;4.15;;;;;;;12.15;100.00;98538.22;18236989;32;20084;-62
2022/10/27 21:06:44;;;;;;;8.67;4.07;;;;;;;12.08;100.00;98521.34;18235466;32;20063;-62
2022/10/27 21:16:49;;;;;;;6.30;3.55;;;;;;;12.14;100.00;98538.47;18236299;32;20067;-62
2022/10/27 21:26:53;;;;;;;7.40;4.18;;;;;;;12.05;100.00;98540.03;18236107;32;20092;-61
2022/10/27 21:36:55;;;;;;;9.13;3.45;;;;;;;11.92;100.00;98542.06;18234637;32;20051;-62
2022/10/27 21:46:58;;;;;;;9.50;3.17;;;;;;;11.78;100.00;98521.87;18233560;32;20089;-64
2022/10/27 21:58:45;;;;;;;6.72;3.65;;;;;;;12.39;100.00;98532.44;18682913;31;20089;-62
2022/10/27 22:08:48;;;;;;;6.10;3.22;;;;;;;12.39;100.00;98532.44;18477680;32;20102;-62
2022/10/27 22:18:53;;;;;;;9.05;3.28;;;;;;;11.87;100.00;98523.06;18476907;32;20064;-62
2022/10/27 22:28:55;;;;;;;8.68;4.22;;;;;;;11.98;100.00;98505.81;18476592;32;20420;-62
2022/10/27 22:38:59;;;;;;;5.50;3.30;;;;;;;12.39;100.00;98508.03;18586818;31;20052;-61
2022/10/27 22:49:02;;;;;;;8.48;4.03;;;;;;;12.65;100.00;98519.06;18616598;31;20052;-61
2022/10/27 22:59:07;;;;;;;6.47;3.42;;;;;;;12.95;100.00;98507.53;18639438;31;20056;-62
2022/10/27 23:09:18;;;;;;;8.30;3.62;;;;;;;13.12;100.00;98501.88;18625031;31;20040;-62
2022/10/27 23:19:20;;;;;;;5.22;3.10;;;;;;;13.30;100.00;98507.91;18634723;31;20060;-61
2022/10/27 23:29:22;;;;;;;6.00;3.10;;;;;;;13.38;100.00;98499.28;18620163;31;20433;-61
2022/10/27 23:39:25;;;;;;;6.53;2.87;;;;;;;13.41;100.00;98509.59;18633255;31;20056;-61
2022/10/27 23:49:27;;;;;;;7.25;3.50;;;;;;;13.38;100.00;98500.09;18618024;31;20056;-62
2022/10/27 23:59:29;;;;;;;4.65;3.42;;;;;;;13.42;100.00;98505.00;18617863;31;20450;-62
